This is the latest recevied weather packets stored in our database for station/object MM1PTT-13. If no packets are shown the sender has not sent any weather packets the latest 1 day(s).
| Time | Temp. | Humidity | Pressure | Rain* | Wind** | Luminosity | Snow |
|---|---|---|---|---|---|---|---|
| 1778114442 | 7.22° C | 69% | 984.4 hPa | 0 mm | - | 0 W/m² | - |
| 1778114143 | 7.22° C | 69% | 984.1 hPa | 0 mm | - | 0 W/m² | - |
| 1778113842 | 7.22° C | 69% | 984.1 hPa | 0 mm | - | 0 W/m² | - |
| 1778113543 | 7.22° C | 69% | 984.1 hPa | 0 mm | - | 0 W/m² | - |
| 1778113243 | 7.22° C | 68% | 984.4 hPa | 0 mm | - | 0 W/m² | - |
| 1778112643 | 7.22° C | 68% | 984.1 hPa | 0 mm | - | 0 W/m² | - |
| 1778111743 | 7.22° C | 67% | 984.1 hPa | 0 mm | - | 0 W/m² | - |
| 1778110843 | 7.22° C | 67% | 984.4 hPa | 0 mm | - | 0 W/m² | - |
| 1778110543 | 7.22° C | 66% | 984.1 hPa | 0 mm | - | 0 W/m² | - |
| 1778110243 | 7.22° C | 66% | 984.1 hPa | 0 mm | - | 0 W/m² | - |
| 1778109643 | 7.78° C | 66% | 984.4 hPa | 0 mm | - | 0 W/m² | - |
| 1778109043 | 7.78° C | 66% | 984.4 hPa | 0 mm | - | 0 W/m² | - |
| 1778107244 | 7.78° C | 67% | 984.4 hPa | 0 mm | - | 0 W/m² | - |
| 1778106043 | 7.78° C | 71% | 984.4 hPa | 0 mm | - | 0 W/m² | - |
| 1778105144 | 7.22° C | 78% | 984.8 hPa | 0 mm | - | 0 W/m² | - |
| 1778104843 | 7.22° C | 78% | 984.4 hPa | 0 mm | - | 0 W/m² | - |
| 1778104543 | 6.67° C | 77% | 984.4 hPa | 0 mm | - | 0 W/m² | - |
| 1778102742 | 7.78° C | 74% | 984.4 hPa | 0 mm | - | 0 W/m² | - |
| 1778102444 | 7.78° C | 74% | 984.4 hPa | 0 mm | - | 0 W/m² | - |
| 1778101843 | 7.22° C | 74% | 984.4 hPa | 0 mm | - | 0 W/m² | - |
| 1778101243 | 7.78° C | 74% | 984.4 hPa | 0 mm | - | 0 W/m² | - |
| 1778099443 | 8.33° C | 69% | 984.4 hPa | 0 mm | - | 1 W/m² | - |
| 1778099145 | 8.33° C | 69% | 984.8 hPa | 0 mm | - | 1 W/m² | - |
| 1778098543 | 8.89° C | 68% | 984.4 hPa | 0 mm | - | 2 W/m² | - |
| 1778097345 | 8.89° C | 67% | 984.4 hPa | 0 mm | - | 3 W/m² | - |
* Rain latest hour (hover to see other rain measurements)
** Current wind speed in m/s (hover to see current wind gust speed)